createdAt,value
2019-03-31T00:03:22.404Z,10.37
2019-03-31T00:08:07.623Z,10.77
2019-03-31T00:12:53.119Z,9.90
2019-03-31T00:17:38.761Z,10.27
2019-03-31T00:22:27.720Z,10.17
2019-03-31T00:27:13.215Z,10.70
2019-03-31T00:32:02.890Z,10.20
2019-03-31T00:36:47.982Z,9.90
2019-03-31T00:41:37.674Z,10.50
2019-03-31T00:46:23.844Z,11.00
2019-03-31T00:51:09.486Z,10.40
2019-03-31T00:55:55.061Z,11.03
2019-03-31T01:00:59.480Z,10.60
2019-03-31T01:05:45.986Z,11.87
2019-03-31T01:10:31.982Z,11.53
2019-03-31T01:15:19.604Z,10.80
2019-03-31T01:20:05.223Z,12.70
2019-03-31T01:24:51.363Z,11.23
2019-03-31T01:29:36.706Z,11.90
2019-03-31T01:34:22.491Z,12.20
2019-03-31T01:39:09.773Z,11.83
2019-03-31T01:43:55.185Z,12.57
2019-03-31T01:48:40.632Z,12.80
2019-03-31T01:53:26.000Z,13.13
2019-03-31T01:58:11.436Z,13.30
2019-03-31T02:02:57.150Z,12.77
2019-03-31T02:07:42.208Z,13.33
2019-03-31T02:12:31.373Z,13.63
2019-03-31T02:17:17.346Z,13.97
2019-03-31T02:22:02.928Z,13.90
2019-03-31T02:26:50.876Z,13.70
2019-03-31T02:31:36.432Z,15.20
2019-03-31T02:36:21.939Z,14.53
2019-03-31T02:41:07.341Z,14.43
2019-03-31T02:45:55.294Z,13.83
2019-03-31T02:50:49.599Z,14.33
2019-03-31T02:55:34.958Z,14.63
2019-03-31T03:00:20.065Z,14.73
2019-03-31T03:05:18.842Z,14.13
2019-03-31T03:09:53.557Z,13.67
2019-03-31T03:14:39.660Z,14.23
2019-03-31T03:19:24.847Z,14.30
2019-03-31T03:24:10.171Z,13.17
2019-03-31T03:28:55.421Z,13.63
2019-03-31T03:33:40.648Z,14.17
2019-03-31T03:38:25.787Z,13.83
2019-03-31T03:43:10.958Z,14.23
2019-03-31T03:47:56.180Z,13.27
2019-03-31T03:52:41.456Z,14.10
2019-03-31T03:57:26.827Z,13.73
2019-03-31T04:02:11.889Z,14.30
2019-03-31T04:06:57.049Z,14.17
2019-03-31T04:11:42.038Z,12.63
2019-03-31T04:16:27.149Z,14.17
2019-03-31T04:21:12.187Z,13.50
2019-03-31T04:25:57.321Z,13.63
2019-03-31T04:30:42.473Z,13.60
2019-03-31T04:35:27.590Z,13.97
2019-03-31T04:40:12.674Z,12.17
2019-03-31T04:44:57.920Z,14.33
2019-03-31T04:49:43.132Z,14.67
2019-03-31T04:54:28.337Z,13.70
2019-03-31T04:59:13.504Z,14.10
2019-03-31T05:04:04.942Z,15.13
2019-03-31T05:08:45.632Z,14.63
2019-03-31T05:13:30.792Z,14.70
2019-03-31T05:18:15.877Z,14.13
2019-03-31T05:23:00.990Z,14.60
2019-03-31T05:27:46.162Z,13.77
2019-03-31T05:32:31.280Z,15.07
2019-03-31T05:37:16.438Z,14.87
2019-03-31T05:42:01.498Z,15.70
2019-03-31T05:46:46.715Z,14.97
2019-03-31T05:51:31.930Z,14.57
2019-03-31T05:56:16.980Z,14.50
2019-03-31T06:01:01.977Z,13.87
2019-03-31T06:05:47.223Z,14.20
2019-03-31T06:10:32.370Z,15.03
2019-03-31T06:15:17.527Z,14.47
2019-03-31T06:20:05.828Z,13.30
2019-03-31T06:24:51.158Z,14.63
2019-03-31T06:29:36.327Z,14.97
2019-03-31T06:34:21.739Z,13.83
2019-03-31T06:39:08.064Z,14.23
2019-03-31T06:43:53.228Z,14.97
2019-03-31T06:48:38.311Z,15.00
2019-03-31T06:53:23.452Z,15.70
2019-03-31T06:58:08.563Z,16.53
2019-03-31T07:02:54.129Z,16.03
2019-03-31T07:07:39.241Z,17.80
2019-03-31T07:12:24.328Z,18.13
2019-03-31T07:17:09.441Z,18.33
2019-03-31T07:21:54.762Z,18.30
2019-03-31T07:26:40.003Z,19.10
2019-03-31T07:31:25.125Z,18.33
2019-03-31T07:36:10.349Z,23.00
2019-03-31T07:40:55.555Z,20.90
2019-03-31T07:45:41.652Z,22.83
2019-03-31T07:50:28.397Z,26.00
2019-03-31T07:55:14.231Z,26.40
2019-03-31T07:59:59.294Z,26.70
2019-03-31T08:04:44.459Z,25.60
2019-03-31T08:09:29.906Z,30.47
2019-03-31T08:14:15.084Z,25.07
2019-03-31T08:19:00.197Z,25.33
2019-03-31T08:23:45.389Z,27.60
2019-03-31T08:28:30.478Z,25.87
2019-03-31T08:33:15.631Z,27.83
2019-03-31T08:38:00.796Z,26.47
2019-03-31T08:42:46.130Z,26.40
2019-03-31T08:47:31.302Z,25.67
2019-03-31T08:52:16.454Z,26.60
2019-03-31T08:57:02.434Z,26.53
2019-03-31T09:01:47.722Z,26.90
2019-03-31T09:06:32.991Z,25.37
2019-03-31T09:11:18.220Z,27.13
2019-03-31T09:16:03.434Z,26.20
2019-03-31T09:20:50.866Z,28.20
2019-03-31T09:25:36.015Z,26.73
2019-03-31T09:30:21.307Z,26.87
2019-03-31T09:35:07.409Z,27.87
2019-03-31T09:39:52.536Z,28.23
2019-03-31T09:44:37.713Z,29.80
2019-03-31T09:49:22.982Z,29.97
2019-03-31T09:54:08.373Z,28.87
2019-03-31T09:58:53.499Z,29.90
2019-03-31T10:03:38.661Z,29.03
2019-03-31T10:08:23.770Z,27.23
2019-03-31T10:13:09.000Z,28.97
2019-03-31T10:17:54.303Z,28.07
2019-03-31T10:22:39.690Z,27.77
2019-03-31T10:27:35.922Z,26.70
2019-03-31T10:32:21.277Z,26.27
2019-03-31T10:37:06.426Z,26.67
2019-03-31T10:41:51.831Z,26.30
2019-03-31T10:46:37.203Z,25.07
2019-03-31T10:51:22.458Z,26.17
2019-03-31T10:56:07.802Z,23.50
2019-03-31T11:00:53.106Z,24.50
2019-03-31T11:05:38.524Z,25.50
2019-03-31T11:10:26.565Z,26.17
2019-03-31T11:15:14.157Z,27.23
2019-03-31T11:20:00.783Z,25.07
2019-03-31T11:24:46.550Z,26.67
2019-03-31T11:29:32.035Z,25.67
2019-03-31T11:34:19.700Z,25.87
2019-03-31T11:39:07.368Z,25.80
2019-03-31T11:43:52.804Z,26.53
2019-03-31T11:48:38.239Z,26.30
2019-03-31T11:53:23.523Z,26.70
2019-03-31T11:58:08.967Z,25.90
2019-03-31T12:02:54.470Z,23.73
2019-03-31T12:07:46.633Z,25.07
2019-03-31T12:12:26.761Z,23.93
2019-03-31T12:17:12.639Z,25.20
2019-03-31T12:21:58.051Z,23.53
2019-03-31T12:26:43.322Z,23.23
2019-03-31T12:31:28.774Z,25.07
2019-03-31T12:36:17.244Z,24.77
2019-03-31T12:41:03.041Z,22.20
2019-03-31T12:45:48.383Z,24.60
2019-03-31T12:50:33.584Z,24.60
2019-03-31T12:55:23.978Z,24.60
2019-03-31T13:00:10.548Z,26.03
2019-03-31T13:04:57.310Z,24.53
2019-03-31T13:09:42.787Z,25.27
2019-03-31T13:14:28.245Z,22.13
2019-03-31T13:19:13.570Z,23.13
2019-03-31T13:23:59.465Z,24.27
2019-03-31T13:28:45.129Z,24.57
2019-03-31T13:33:30.646Z,23.87
2019-03-31T13:38:15.869Z,22.57
2019-03-31T13:43:04.436Z,26.80
2019-03-31T13:47:53.968Z,28.47
2019-03-31T13:52:39.842Z,27.27
2019-03-31T13:57:26.164Z,28.63
2019-03-31T14:02:11.967Z,28.43
2019-03-31T14:06:57.583Z,26.83
2019-03-31T14:11:43.080Z,24.40
2019-03-31T14:16:29.250Z,23.50
2019-03-31T14:21:14.869Z,20.97
2019-03-31T14:26:00.240Z,20.37
2019-03-31T14:30:45.514Z,19.93
2019-03-31T14:35:31.036Z,20.60
2019-03-31T14:40:19.136Z,21.00
2019-03-31T14:45:04.242Z,19.93
2019-03-31T14:49:49.695Z,19.83
2019-03-31T14:54:35.033Z,19.37
2019-03-31T14:59:20.486Z,18.60
2019-03-31T15:04:06.006Z,19.10
2019-03-31T15:08:54.803Z,20.07
2019-03-31T15:13:40.210Z,19.37
2019-03-31T15:18:28.431Z,18.33
2019-03-31T15:23:15.411Z,17.80
2019-03-31T15:28:00.848Z,18.10
2019-03-31T15:32:46.045Z,18.77
2019-03-31T15:37:31.343Z,17.57
2019-03-31T15:42:16.994Z,17.00
2019-03-31T15:47:02.499Z,16.70
2019-03-31T15:51:48.001Z,14.30
2019-03-31T15:56:33.474Z,13.17
2019-03-31T16:01:19.099Z,12.13
2019-03-31T16:06:04.433Z,10.27
2019-03-31T16:10:49.133Z,8.83
2019-03-31T16:15:33.971Z,8.73
2019-03-31T16:20:18.825Z,10.03
2019-03-31T16:25:05.712Z,8.80
2019-03-31T16:29:50.403Z,8.37
2019-03-31T16:34:35.387Z,8.50
2019-03-31T16:39:21.248Z,7.87
2019-03-31T16:44:06.075Z,6.77
2019-03-31T16:48:50.899Z,7.57
2019-03-31T16:53:35.580Z,7.20
2019-03-31T16:58:20.589Z,6.40
2019-03-31T17:03:05.255Z,6.10
2019-03-31T17:07:50.212Z,5.83
2019-03-31T17:12:34.970Z,5.33
2019-03-31T17:17:19.869Z,7.00
2019-03-31T17:22:04.522Z,6.20
2019-03-31T17:26:49.510Z,4.80
2019-03-31T17:31:34.200Z,5.23
2019-03-31T17:36:19.178Z,4.70
2019-03-31T17:41:04.100Z,5.07
2019-03-31T17:45:48.754Z,5.27
2019-03-31T17:50:33.825Z,4.33
2019-03-31T17:55:18.600Z,4.10
2019-03-31T18:00:03.792Z,4.90
2019-03-31T18:04:48.606Z,6.00
2019-03-31T18:09:33.391Z,4.50
2019-03-31T18:14:18.333Z,4.10
2019-03-31T18:19:03.492Z,4.23
2019-03-31T18:23:48.598Z,3.87
2019-03-31T18:28:37.733Z,3.97
2019-03-31T18:33:23.004Z,5.10
2019-03-31T18:38:07.917Z,4.20
2019-03-31T18:42:52.617Z,4.43
2019-03-31T18:47:37.600Z,5.37
2019-03-31T18:52:22.688Z,4.67
2019-03-31T18:57:18.538Z,5.23
2019-03-31T19:02:15.220Z,5.77
2019-03-31T19:07:17.642Z,5.57
2019-03-31T19:12:20.653Z,5.60
2019-03-31T19:17:39.852Z,5.27
2019-03-31T19:22:51.377Z,5.00
2019-03-31T19:27:45.574Z,5.33
2019-03-31T19:32:36.680Z,5.30
2019-03-31T19:37:39.489Z,6.07
2019-03-31T19:42:36.865Z,5.43
2019-03-31T19:47:40.709Z,5.60
2019-03-31T19:52:44.813Z,5.60
2019-03-31T19:57:51.602Z,6.03
2019-03-31T20:02:55.449Z,5.13
2019-03-31T20:07:59.051Z,4.93
2019-03-31T20:13:08.666Z,5.83
2019-03-31T20:18:15.409Z,5.13
2019-03-31T20:23:21.849Z,6.23
2019-03-31T20:28:25.339Z,5.43
2019-03-31T20:33:34.740Z,5.53
2019-03-31T20:38:28.939Z,5.53
2019-03-31T20:43:32.854Z,5.83
2019-03-31T20:48:17.678Z,5.87
2019-03-31T20:53:02.659Z,5.43
2019-03-31T20:57:47.786Z,5.17
2019-03-31T21:02:32.843Z,4.97
2019-03-31T21:07:17.661Z,4.17
2019-03-31T21:12:02.555Z,4.77
2019-03-31T21:16:47.543Z,4.00
2019-03-31T21:21:32.185Z,3.67
2019-03-31T21:26:17.979Z,3.80
2019-03-31T21:31:06.684Z,4.73
2019-03-31T21:35:54.747Z,3.87
2019-03-31T21:40:48.439Z,4.33
2019-03-31T21:45:33.660Z,4.17
2019-03-31T21:50:22.645Z,4.43
2019-03-31T21:55:08.239Z,4.03
2019-03-31T21:59:55.461Z,4.17
2019-03-31T22:04:40.236Z,4.10
2019-03-31T22:09:25.150Z,4.83
2019-03-31T22:14:10.684Z,4.67
2019-03-31T22:18:55.831Z,4.03
2019-03-31T22:23:40.865Z,4.03
2019-03-31T22:28:25.808Z,4.37
2019-03-31T22:33:10.671Z,4.43
2019-03-31T22:37:55.707Z,4.03
2019-03-31T22:42:40.743Z,4.27
2019-03-31T22:47:25.463Z,4.20
2019-03-31T22:52:10.462Z,3.93
2019-03-31T22:56:55.500Z,3.67
2019-03-31T23:01:40.540Z,4.47
2019-03-31T23:06:25.373Z,3.60
2019-03-31T23:11:10.271Z,3.80
2019-03-31T23:15:55.224Z,3.50
2019-03-31T23:20:40.298Z,4.10
2019-03-31T23:25:25.217Z,3.63
2019-03-31T23:30:13.527Z,3.83
2019-03-31T23:34:58.530Z,4.00
2019-03-31T23:39:43.455Z,3.07
2019-03-31T23:44:28.205Z,3.33
2019-03-31T23:49:12.957Z,3.53
2019-03-31T23:53:57.744Z,3.80
2019-03-31T23:58:42.623Z,3.63
